Time,TemperatureF,DewpointF,PressureIn,WindDirection,WindDirectionDegrees,WindSpeedMPH,WindSpeedGustMPH,Humidity,HourlyPrecipIn,Conditions,Clouds,dailyrainin,SoftwareType,DateUTC
2013-09-06 00:10:00,68.8,66.0,30.08,ENE,69,0.0,-999.0,90,-99.99,,,0.00,weatherlink.com 1.10,2013-09-06 04:10:00,
2013-09-06 00:20:00,68.3,66.0,30.08,ENE,69,0.0,-999.0,91,-99.99,,,0.00,weatherlink.com 1.10,2013-09-06 04:20:00,
2013-09-06 00:35:00,68.2,66.0,30.08,ENE,69,0.0,-999.0,91,-99.99,,,0.00,weatherlink.com 1.10,2013-09-06 04:35:00,
2013-09-06 01:10:00,68.1,65.0,30.09,ENE,69,0.0,-999.0,91,-99.99,,,0.00,weatherlink.com 1.10,2013-09-06 05:10:00,
2013-09-06 01:20:00,68.4,65.0,30.08,ENE,69,0.0,-999.0,88,-99.99,,,0.00,weatherlink.com 1.10,2013-09-06 05:20:00,
2013-09-06 01:35:00,68.9,65.0,30.08,ENE,69,0.0,-999.0,87,-99.99,,,0.00,weatherlink.com 1.10,2013-09-06 05:35:00,
2013-09-06 02:10:00,69.4,64.0,30.08,ENE,69,0.0,-999.0,84,-99.99,,,0.00,weatherlink.com 1.10,2013-09-06 06:10:00,
2013-09-06 02:20:00,70.8,64.0,30.09,ENE,69,0.0,-999.0,79,-99.99,,,0.00,weatherlink.com 1.10,2013-09-06 06:20:00,
2013-09-06 02:35:00,70.9,64.0,30.09,ENE,69,0.0,-999.0,79,-99.99,,,0.00,weatherlink.com 1.10,2013-09-06 06:35:00,
2013-09-06 03:10:00,70.6,63.0,30.09,ENE,69,0.0,-999.0,78,-99.99,,,0.00,weatherlink.com 1.10,2013-09-06 07:10:00,
2013-09-06 03:20:00,70.4,63.0,30.09,SSE,148,0.0,-999.0,78,-99.99,,,0.00,weatherlink.com 1.10,2013-09-06 07:20:00,
2013-09-06 03:35:00,70.3,63.0,30.09,SSE,156,0.0,-999.0,78,-99.99,,,0.00,weatherlink.com 1.10,2013-09-06 07:35:00,
2013-09-06 04:10:00,70.1,63.0,30.10,SSE,156,0.0,-999.0,78,-99.99,,,0.00,weatherlink.com 1.10,2013-09-06 08:10:00,
2013-09-06 04:20:00,69.4,62.0,30.10,SSE,167,0.0,-999.0,78,-99.99,,,0.00,weatherlink.com 1.10,2013-09-06 08:20:00,
2013-09-06 04:35:00,69.0,62.0,30.10,SSE,167,0.0,-999.0,77,-99.99,,,0.00,weatherlink.com 1.10,2013-09-06 08:35:00,
2013-09-06 05:10:00,68.8,61.0,30.10,SSE,167,0.0,-999.0,77,-99.99,,,0.00,weatherlink.com 1.10,2013-09-06 09:10:00,
2013-09-06 05:20:00,67.9,60.0,30.11,SSE,167,0.0,-999.0,77,-99.99,,,0.00,weatherlink.com 1.10,2013-09-06 09:20:00,
2013-09-06 05:36:00,67.4,60.0,30.12,SSE,167,0.0,-999.0,78,-99.99,,,0.00,weatherlink.com 1.10,2013-09-06 09:36:00,
2013-09-06 06:10:00,67.0,60.0,30.12,SSE,167,0.0,-999.0,79,-99.99,,,0.00,weatherlink.com 1.10,2013-09-06 10:10:00,
2013-09-06 06:21:00,65.9,59.0,30.13,SSE,167,0.0,-999.0,77,-99.99,,,0.00,weatherlink.com 1.10,2013-09-06 10:21:00,
2013-09-06 06:36:00,65.7,59.0,30.13,SSE,167,0.0,-999.0,78,-99.99,,,0.00,weatherlink.com 1.10,2013-09-06 10:36:00,
2013-09-06 07:10:00,64.9,59.0,30.14,SSE,167,0.0,-999.0,81,-99.99,,,0.00,weatherlink.com 1.10,2013-09-06 11:10:00,
2013-09-06 07:21:00,64.8,58.0,30.15,SSE,167,0.0,-999.0,79,-99.99,,,0.00,weatherlink.com 1.10,2013-09-06 11:21:00,
2013-09-06 07:36:00,64.8,58.0,30.16,SSE,167,0.0,-999.0,79,-99.99,,,0.00,weatherlink.com 1.10,2013-09-06 11:36:00,
2013-09-06 08:09:00,64.8,58.0,30.16,SSE,167,0.0,-999.0,79,-99.99,,,0.00,weatherlink.com 1.10,2013-09-06 12:09:00,
2013-09-06 08:21:00,65.6,58.0,30.17,SSE,167,0.0,-999.0,76,-99.99,,,0.00,weatherlink.com 1.10,2013-09-06 12:21:00,
2013-09-06 08:36:00,66.0,58.0,30.17,South,175,0.0,-999.0,74,-99.99,,,0.00,weatherlink.com 1.10,2013-09-06 12:36:00,
2013-09-06 09:10:00,66.2,58.0,30.17,South,175,0.0,-999.0,75,-99.99,,,0.00,weatherlink.com 1.10,2013-09-06 13:10:00,
2013-09-06 09:21:00,67.6,60.0,30.17,South,188,0.0,-999.0,76,-99.99,,,0.00,weatherlink.com 1.10,2013-09-06 13:21:00,
2013-09-06 09:36:00,68.5,60.0,30.18,SSE,148,0.0,-999.0,75,-99.99,,,0.00,weatherlink.com 1.10,2013-09-06 13:36:00,
2013-09-06 10:10:00,68.9,61.0,30.18,SSE,157,0.0,-999.0,76,-99.99,,,0.00,weatherlink.com 1.10,2013-09-06 14:10:00,
2013-09-06 10:21:00,70.5,63.0,30.18,SSE,157,0.0,-999.0,78,-99.99,,,0.00,weatherlink.com 1.10,2013-09-06 14:21:00,
2013-09-06 10:36:00,71.4,64.0,30.18,SSE,159,0.0,-999.0,76,-99.99,,,0.00,weatherlink.com 1.10,2013-09-06 14:36:00,
2013-09-06 11:10:00,71.9,64.0,30.18,SSE,159,0.0,-999.0,77,-99.99,,,0.00,weatherlink.com 1.10,2013-09-06 15:10:00,
2013-09-06 11:20:00,73.7,65.0,30.18,SSE,150,0.0,-999.0,74,-99.99,,,0.00,weatherlink.com 1.10,2013-09-06 15:20:00,
2013-09-06 11:35:00,74.6,65.0,30.18,SSE,149,0.0,-999.0,73,-99.99,,,0.00,weatherlink.com 1.10,2013-09-06 15:35:00,
2013-09-06 12:10:00,75.0,65.0,30.18,SSE,149,0.0,-999.0,72,-99.99,,,0.00,weatherlink.com 1.10,2013-09-06 16:10:00,
2013-09-06 12:21:00,76.4,63.0,30.17,SSW,194,1.0,-999.0,64,-99.99,,,0.00,weatherlink.com 1.10,2013-09-06 16:21:00,
2013-09-06 12:36:00,76.8,65.0,30.17,SSE,167,0.0,-999.0,66,-99.99,,,0.00,weatherlink.com 1.10,2013-09-06 16:36:00,
2013-09-06 13:10:00,77.2,64.0,30.16,SSE,165,0.0,-999.0,64,-99.99,,,0.00,weatherlink.com 1.10,2013-09-06 17:10:00,
2013-09-06 13:20:00,77.9,63.0,30.16,SSW,196,0.0,-999.0,60,-99.99,,,0.00,weatherlink.com 1.10,2013-09-06 17:20:00,
2013-09-06 13:35:00,77.8,64.0,30.16,SW,215,0.0,-999.0,62,-99.99,,,0.00,weatherlink.com 1.10,2013-09-06 17:35:00,
2013-09-06 14:10:00,77.8,64.0,30.15,SE,136,0.0,-999.0,62,-99.99,,,0.00,weatherlink.com 1.10,2013-09-06 18:10:00,
2013-09-06 14:20:00,78.0,63.0,30.14,SW,227,0.0,-999.0,60,-99.99,,,0.00,weatherlink.com 1.10,2013-09-06 18:20:00,
2013-09-06 14:35:00,78.1,63.0,30.13,South,173,0.0,-999.0,61,-99.99,,,0.00,weatherlink.com 1.10,2013-09-06 18:35:00,
2013-09-06 15:10:00,78.0,63.0,30.13,South,190,0.0,-999.0,61,-99.99,,,0.00,weatherlink.com 1.10,2013-09-06 19:10:00,
2013-09-06 15:20:00,79.4,63.0,30.12,South,177,0.0,-999.0,57,-99.99,,,0.00,weatherlink.com 1.10,2013-09-06 19:20:00,
2013-09-06 15:35:00,78.8,62.0,30.11,South,177,0.0,-999.0,57,-99.99,,,0.00,weatherlink.com 1.10,2013-09-06 19:35:00,
2013-09-06 16:10:00,78.5,62.0,30.11,South,177,0.0,-999.0,58,-99.99,,,0.00,weatherlink.com 1.10,2013-09-06 20:10:00,
2013-09-06 16:20:00,78.5,63.0,30.10,SW,224,0.0,-999.0,59,-99.99,,,0.00,weatherlink.com 1.10,2013-09-06 20:20:00,
2013-09-06 16:35:00,78.4,62.0,30.10,SW,223,0.0,-999.0,57,-99.99,,,0.00,weatherlink.com 1.10,2013-09-06 20:35:00,
2013-09-06 17:09:00,78.4,62.0,30.10,SW,223,0.0,-999.0,58,-99.99,,,0.00,weatherlink.com 1.10,2013-09-06 21:09:00,
2013-09-06 17:20:00,78.5,63.0,30.10,SE,137,0.0,-999.0,59,-99.99,,,0.00,weatherlink.com 1.10,2013-09-06 21:20:00,
2013-09-06 17:35:00,77.6,63.0,30.10,SE,137,0.0,-999.0,62,-99.99,,,0.00,weatherlink.com 1.10,2013-09-06 21:35:00,
2013-09-06 18:10:00,77.3,64.0,30.09,SE,138,0.0,-999.0,63,-99.99,,,0.00,weatherlink.com 1.10,2013-09-06 22:10:00,
2013-09-06 18:20:00,77.7,62.0,30.09,SE,138,0.0,-999.0,58,-99.99,,,0.00,weatherlink.com 1.10,2013-09-06 22:20:00,
2013-09-06 18:35:00,77.7,62.0,30.09,SE,138,0.0,-999.0,58,-99.99,,,0.00,weatherlink.com 1.10,2013-09-06 22:35:00,
2013-09-06 19:09:00,77.5,63.0,30.09,SE,138,0.0,-999.0,61,-99.99,,,0.00,weatherlink.com 1.10,2013-09-06 23:09:00,
2013-09-06 19:20:00,76.3,63.0,30.09,SE,138,0.0,-999.0,64,-99.99,,,0.00,weatherlink.com 1.10,2013-09-06 23:20:00,
2013-09-06 19:35:00,75.6,63.0,30.09,SE,138,0.0,-999.0,65,-99.99,,,0.00,weatherlink.com 1.10,2013-09-06 23:35:00,
2013-09-06 20:09:00,75.0,63.0,30.10,SE,138,0.0,-999.0,67,-99.99,,,0.00,weatherlink.com 1.10,2013-09-07 00:09:00,
2013-09-06 20:20:00,72.6,63.0,30.11,SE,138,0.0,-999.0,73,-99.99,,,0.00,weatherlink.com 1.10,2013-09-07 00:20:00,
2013-09-06 20:36:00,71.8,64.0,30.11,SE,138,0.0,-999.0,75,-99.99,,,0.00,weatherlink.com 1.10,2013-09-07 00:36:00,
2013-09-06 21:09:00,71.4,64.0,30.11,North,-999,-999.0,-999.0,76,-99.99,,,0.00,weatherlink.com 1.10,2013-09-07 01:09:00,
2013-09-06 21:19:00,70.3,63.0,30.11,SE,138,0.0,-999.0,77,-99.99,,,0.00,weatherlink.com 1.10,2013-09-07 01:19:00,
2013-09-06 21:34:00,69.7,62.0,30.11,SE,138,0.0,-999.0,77,-99.99,,,0.00,weatherlink.com 1.10,2013-09-07 01:34:00,
2013-09-06 22:09:00,69.0,62.0,30.12,SE,138,0.0,-999.0,79,-99.99,,,0.00,weatherlink.com 1.10,2013-09-07 02:09:00,
2013-09-06 22:20:00,69.1,61.0,30.13,SE,138,0.0,-999.0,76,-99.99,,,0.00,weatherlink.com 1.10,2013-09-07 02:20:00,
2013-09-06 22:35:00,69.1,62.0,30.13,SE,138,0.0,-999.0,77,-99.99,,,0.00,weatherlink.com 1.10,2013-09-07 02:35:00,
2013-09-06 23:09:00,69.0,61.0,30.13,SE,138,0.0,-999.0,76,-99.99,,,0.00,weatherlink.com 1.10,2013-09-07 03:09:00,
2013-09-06 23:20:00,68.4,62.0,30.14,SE,138,0.0,-999.0,80,-99.99,,,0.00,weatherlink.com 1.10,2013-09-07 03:20:00,
2013-09-06 23:35:00,68.0,62.0,30.14,SE,138,0.0,-999.0,81,-99.99,,,0.00,weatherlink.com 1.10,2013-09-07 03:35:00,